Observations for Trim Market St
| Time | AQI | Temp °C | Hum % | Pres Pa | CO μg/m³ | H₂S μg/m³ | NO μg/m³ | NO₂ μg/m³ | O₃ μg/m³ | SO₂ μg/m³ | PM1 μg/m³ | PM2.5 μg/m³ | PM10 μg/m³ |
|---|---|---|---|---|---|---|---|---|---|---|---|---|---|
| Tuesday 14 July 2026 | |||||||||||||
| 23:18 | 1 | 18.9 | 61 | 57,865 | 0.04 | 0 | 0 | 8.52 | 20.85 | 0 | 7.13 | 9.46 | 15.01 |
| 23:17 | 1 | 18.9 | 61 | 57,869 | 0.02 | 0 | 0 | 8.64 | 22.33 | 0 | 5.7 | 9.47 | 12.98 |
| 23:16 | 1 | 18.9 | 61 | 57,871 | 0.01 | 0 | 0 | 8.34 | 21.66 | 0 | 6.41 | 8.47 | 12.98 |
| 23:10 | 1 | 19 | 60 | 57,893 | 0.02 | 0 | 0 | 8.47 | 21.73 | 0 | 6.41 | 8 | 13 |
| 23:03 | 1 | 19.1 | 60 | 57,905 | 0.01 | 0 | 0 | 8.17 | 21.88 | 0 | 4.99 | 9.02 | 14.38 |
| 23:02 | 1 | 19.1 | 60 | 57,905 | 0.01 | 0 | 0 | 7.97 | 22.47 | 0 | 4.28 | 8.52 | 11.64 |
| 23:01 | 1 | 19.2 | 60 | 57,905 | 0 | 0 | 0 | 7.46 | 24.14 | 0 | 4.28 | 8.53 | 12.33 |
| 23:00 | 1 | 19.2 | 60 | 57,907 | 0 | 0 | 0 | 10.07 | 26.04 | 0 | 4.99 | 8.03 | 12.34 |
| 22:59 | 1 | 19.2 | 60 | 57,909 | 0 | 0 | 0 | 9.57 | 20.6 | 0 | 4.99 | 9.03 | 13.71 |
| 22:58 | 1 | 19.2 | 60 | 57,913 | 0.01 | 0 | 0 | 9.38 | 23.24 | 0 | 4.99 | 10.54 | 14.4 |
| 22:57 | 1 | 19.2 | 60 | 57,917 | 0 | 0 | 0 | 9.19 | 23.73 | 0 | 5.7 | 10.05 | 14.41 |
| 22:56 | 1 | 19.2 | 60 | 57,919 | 0 | 0 | 0 | 9.89 | 22.91 | 0 | 4.28 | 7.04 | 10.28 |
| 22:55 | 1 | 19.2 | 60 | 57,921 | 0 | 0 | 0 | 9.9 | 24.2 | 0 | 5.7 | 8.55 | 11.66 |
| 22:54 | 1 | 19.3 | 60 | 57,923 | 0 | 0 | 0 | 8.79 | 25.07 | 0 | 4.28 | 7.56 | 10.29 |
| 22:53 | 1 | 19.3 | 60 | 57,927 | 0 | 0 | 0 | 9.59 | 20.58 | 0 | 5.7 | 8.56 | 11.66 |
| 22:52 | 1 | 19.3 | 59 | 57,928 | 0 | 0 | 0 | 8.6 | 23.1 | 0 | 4.99 | 8.06 | 12.36 |
| 22:51 | 1 | 19.3 | 59 | 57,930 | 0.02 | 0 | 0 | 9.2 | 22.19 | 0 | 4.99 | 9.57 | 13.74 |
| 22:50 | 1 | 19.3 | 59 | 57,932 | 0.06 | 0 | 0 | 10.01 | 25.32 | 0 | 5.7 | 9.07 | 12.36 |
| 22:48 | 1 | 19.4 | 59 | 57,932 | 0 | 0 | 0 | 9.69 | 23.94 | 0 | 4.99 | 8.58 | 13.06 |
| 22:47 | 1 | 19.4 | 59 | 57,932 | 0.01 | 0 | 0 | 9.91 | 20.26 | 0 | 4.28 | 8.08 | 10.99 |